Time;durP1;ratioP1;P1;durP2;ratioP2;P2;SDS_P1;SDS_P2;PMS_P1;PMS_P2;Temp;Humidity;BMP_temperature;BMP_pressure;BME280_temperature;BME280_humidity;BME280_pressure;Samples;Min_cycle;Max_cycle;Signal;HPM_P1;HPM_P2
2022/09/24 00:00:28;;;;;;;84.47;76.57;;;13.00;99.90;;;;;;4953520;28;20050;-74
2022/09/24 00:02:53;;;;;;;92.40;83.55;;;13.10;99.90;;;;;;4938861;28;20039;-75
2022/09/24 00:05:19;;;;;;;86.13;77.90;;;13.00;99.90;;;;;;4946514;29;20502;-75
2022/09/24 00:07:44;;;;;;;83.70;75.93;;;13.00;99.90;;;;;;4936796;28;20043;-75
2022/09/24 00:10:10;;;;;;;85.05;76.45;;;13.00;99.90;;;;;;4939503;28;20047;-75
2022/09/24 00:12:36;;;;;;;82.78;75.25;;;13.10;99.90;;;;;;4955659;28;20489;-75
2022/09/24 00:15:02;;;;;;;94.78;84.93;;;13.10;99.90;;;;;;4944839;29;20043;-75
2022/09/24 00:17:27;;;;;;;89.93;80.68;;;13.10;99.90;;;;;;4930402;29;20050;-75
2022/09/24 00:19:53;;;;;;;86.18;77.72;;;13.10;99.90;;;;;;4954957;28;20038;-75
2022/09/24 00:22:19;;;;;;;85.55;77.40;;;13.10;99.90;;;;;;4955316;28;20042;-76
2022/09/24 00:27:28;;;;;;;83.68;75.53;;;13.10;99.90;;;;;;4922878;29;20475;-75
2022/09/24 00:29:54;;;;;;;89.20;79.80;;;13.00;99.90;;;;;;4955721;28;20046;-75
2022/09/24 00:32:22;;;;;;;86.13;77.70;;;13.10;99.90;;;;;;4955230;28;20517;-75
2022/09/24 00:34:50;;;;;;;83.32;75.50;;;13.00;99.90;;;;;;4932893;29;20046;-75
2022/09/24 00:37:17;;;;;;;88.50;79.72;;;13.00;99.90;;;;;;4929978;29;20047;-75
2022/09/24 00:39:44;;;;;;;88.53;79.20;;;13.00;99.90;;;;;;4937350;28;20540;-75
2022/09/24 00:42:13;;;;;;;87.80;79.30;;;13.00;99.90;;;;;;4954876;28;20520;-75
2022/09/24 00:44:52;;;;;;;85.45;77.05;;;13.00;99.90;;;;;;4936468;28;20054;-75
2022/09/24 00:47:26;;;;;;;88.80;79.68;;;13.00;99.90;;;;;;4919128;29;20054;-75
2022/09/24 00:49:54;;;;;;;;;;;13.00;99.90;;;;;;4938872;28;20078;-75
2022/09/24 00:52:20;;;;;;;86.40;77.60;;;12.90;99.90;;;;;;4936325;28;19918;-75
2022/09/24 00:54:46;;;;;;;94.70;84.70;;;12.90;99.90;;;;;;4935960;28;20054;-75
2022/09/24 00:57:13;;;;;;;91.63;82.05;;;12.90;99.90;;;;;;4943631;28;20047;-75
2022/09/24 00:59:40;;;;;;;91.00;81.22;;;12.90;99.90;;;;;;4939257;28;20043;-75
2022/09/24 01:02:07;;;;;;;98.57;88.00;;;12.90;99.90;;;;;;4942333;28;20053;-75
2022/09/24 01:04:33;;;;;;;89.40;80.10;;;12.80;99.90;;;;;;4957006;28;20070;-75
2022/09/24 01:06:58;;;;;;;91.18;82.15;;;12.90;99.90;;;;;;4947378;29;20524;-75
2022/09/24 01:09:26;;;;;;;97.72;87.40;;;12.80;99.90;;;;;;4945260;28;20111;-75
2022/09/24 01:11:54;;;;;;;92.88;83.10;;;12.90;99.90;;;;;;4949301;28;20039;-76
2022/09/24 01:14:58;;;;;;;90.35;81.15;;;12.90;99.90;;;;;;4942101;28;20508;-75
2022/09/24 01:17:38;;;;;;;94.05;84.25;;;12.90;99.90;;;;;;4949672;29;20094;-75
2022/09/24 01:20:36;;;;;;;102.50;91.32;;;12.90;99.90;;;;;;4923995;29;20066;-75
2022/09/24 01:23:35;;;;;;;95.45;85.45;;;12.90;99.90;;;;;;4941905;28;20489;-76
2022/09/24 01:26:12;;;;;;;89.97;80.68;;;12.90;99.90;;;;;;4927175;29;20138;-75
2022/09/24 01:29:04;;;;;;;93.13;83.07;;;12.90;99.90;;;;;;4936172;29;20067;-75
2022/09/24 01:31:40;;;;;;;96.57;86.03;;;12.90;99.90;;;;;;4938596;29;20047;-75
2022/09/24 01:34:08;;;;;;;91.88;82.53;;;12.90;99.90;;;;;;4938817;29;20035;-75
2022/09/24 01:36:35;;;;;;;94.18;84.22;;;12.90;99.90;;;;;;4929960;29;20050;-75
2022/09/24 01:39:03;;;;;;;86.10;77.45;;;12.90;99.90;;;;;;4948327;28;20558;-75
2022/09/24 01:41:32;;;;;;;86.38;77.72;;;12.80;99.90;;;;;;4957839;28;20385;-74
2022/09/24 01:43:59;;;;;;;85.35;76.68;;;12.90;99.90;;;;;;4929013;29;20070;-75
2022/09/24 01:46:25;;;;;;;85.97;77.20;;;12.90;99.90;;;;;;4938385;29;20094;-75
2022/09/24 01:48:51;;;;;;;87.95;78.35;;;12.90;99.90;;;;;;4947834;28;20118;-75
2022/09/24 01:51:37;;;;;;;114.70;90.93;;;12.90;99.90;;;;;;4957411;28;20165;-75
2022/09/24 01:54:11;;;;;;;90.57;80.60;;;12.90;99.90;;;;;;4919303;29;20482;-75
2022/09/24 01:56:50;;;;;;;120.03;79.13;;;12.90;99.90;;;;;;4929825;29;20031;-75
2022/09/24 01:59:22;;;;;;;83.53;74.55;;;12.90;99.90;;;;;;4951162;28;20039;-75
2022/09/24 02:01:55;;;;;;;87.03;77.77;;;12.90;99.90;;;;;;4939661;28;20117;-75
2022/09/24 02:04:23;;;;;;;;;;;12.90;99.90;;;;;;4914915;29;20083;-75
2022/09/24 02:06:56;;;;;;;90.43;80.38;;;12.90;99.90;;;;;;4938301;28;20479;-75
2022/09/24 02:09:37;;;;;;;85.65;76.43;;;12.90;99.90;;;;;;4943158;28;20094;-75
2022/09/24 02:12:41;;;;;;;89.40;80.00;;;12.90;99.90;;;;;;4936662;29;20035;-75
2022/09/24 02:15:16;;;;;;;85.57;76.57;;;12.90;99.90;;;;;;4927900;28;20042;-75
2022/09/24 02:17:46;;;;;;;86.57;77.38;;;12.90;99.90;;;;;;4956947;28;20086;-75
2022/09/24 02:20:22;;;;;;;89.70;80.18;;;12.90;99.90;;;;;;4957041;28;20047;-75
2022/09/24 02:22:49;;;;;;;86.95;77.65;;;12.90;99.90;;;;;;4947575;28;20091;-75
2022/09/24 02:25:21;;;;;;;94.35;82.78;;;12.90;99.90;;;;;;4931241;29;20134;-75
2022/09/24 02:27:46;;;;;;;89.15;79.45;;;12.90;99.90;;;;;;4945724;28;20042;-75
2022/09/24 02:30:12;;;;;;;83.72;74.93;;;12.90;99.90;;;;;;4956634;28;20050;-75
2022/09/24 02:32:40;;;;;;;87.80;78.50;;;12.90;99.90;;;;;;4947642;28;20082;-75
2022/09/24 02:35:09;;;;;;;88.18;78.47;;;12.90;99.90;;;;;;4944595;28;20042;-75
2022/09/24 02:37:37;;;;;;;109.88;86.95;;;12.90;99.90;;;;;;4951619;28;20054;-75
2022/09/24 02:40:05;;;;;;;98.18;85.88;;;12.90;99.90;;;;;;4956813;28;20035;-75
2022/09/24 02:42:31;;;;;;;93.95;81.03;;;12.90;99.90;;;;;;4937180;29;20043;-75
2022/09/24 02:44:59;;;;;;;89.35;79.93;;;12.90;99.90;;;;;;4937359;29;20039;-75
2022/09/24 02:47:25;;;;;;;93.65;81.95;;;12.80;99.90;;;;;;4936369;29;20047;-75
2022/09/24 02:49:51;;;;;;;89.43;79.05;;;12.90;99.90;;;;;;4929269;29;20043;-75
2022/09/24 02:52:17;;;;;;;90.40;80.50;;;12.80;99.90;;;;;;4941548;28;20031;-75
2022/09/24 02:54:43;;;;;;;97.13;84.15;;;12.80;99.90;;;;;;4956333;28;20138;-75
2022/09/24 02:57:09;;;;;;;78.35;70.45;;;12.80;99.90;;;;;;4955259;28;20523;-75
2022/09/24 02:59:35;;;;;;;77.68;69.75;;;12.90;99.90;;;;;;4936806;29;20040;-75
2022/09/24 03:02:01;;;;;;;89.90;79.70;;;12.80;99.90;;;;;;4937329;29;20051;-76
2022/09/24 03:04:27;;;;;;;94.10;83.20;;;12.80;99.90;;;;;;4936534;29;20043;-75
2022/09/24 03:06:53;;;;;;;111.53;87.90;;;12.80;99.90;;;;;;4955694;28;20485;-75
2022/09/24 03:09:19;;;;;;;91.15;78.45;;;12.80;99.90;;;;;;4914376;29;20132;-75
2022/09/24 03:11:46;;;;;;;81.60;73.15;;;12.80;99.90;;;;;;4936820;29;20465;-75
2022/09/24 03:14:11;;;;;;;116.22;88.03;;;12.80;99.90;;;;;;4936088;29;20039;-75
2022/09/24 03:16:37;;;;;;;104.90;84.38;;;12.80;99.90;;;;;;4953307;28;20035;-75
2022/09/24 03:19:03;;;;;;;87.25;76.97;;;12.80;99.90;;;;;;4935685;28;20520;-75
2022/09/24 03:21:28;;;;;;;77.07;69.10;;;12.80;99.90;;;;;;4955993;28;20130;-75
2022/09/24 03:23:54;;;;;;;96.47;81.22;;;12.80;99.90;;;;;;4953666;28;20089;-75
2022/09/24 03:26:20;;;;;;;93.53;81.35;;;12.80;99.90;;;;;;4935086;28;20046;-75
2022/09/24 03:28:45;;;;;;;90.03;80.20;;;12.80;99.90;;;;;;4939421;28;20039;-75
2022/09/24 03:31:11;;;;;;;87.82;78.57;;;12.70;99.90;;;;;;4938401;28;20039;-75
2022/09/24 03:33:38;;;;;;;85.32;76.20;;;12.80;99.90;;;;;;4939560;28;20062;-75
2022/09/24 03:36:13;;;;;;;92.80;78.25;;;12.80;99.90;;;;;;4939649;28;20034;-75
2022/09/24 03:38:40;;;;;;;85.20;75.97;;;12.80;99.90;;;;;;4928548;29;20193;-75
2022/09/24 03:41:06;;;;;;;89.50;79.85;;;12.80;99.90;;;;;;4937121;29;20035;-75
2022/09/24 03:43:32;;;;;;;88.18;78.60;;;12.70;99.90;;;;;;4936613;29;20082;-75
2022/09/24 03:45:59;;;;;;;81.32;73.03;;;12.70;99.90;;;;;;4947206;28;20057;-75
2022/09/24 03:48:25;;;;;;;85.70;75.47;;;12.70;99.90;;;;;;4939342;29;20135;-76
2022/09/24 03:50:51;;;;;;;84.95;75.88;;;12.70;99.90;;;;;;4935585;29;20091;-76
2022/09/24 03:53:17;;;;;;;91.63;77.13;;;12.70;99.90;;;;;;4935487;29;20513;-76
2022/09/24 03:55:45;;;;;;;80.50;72.18;;;12.70;99.90;;;;;;4948202;28;20034;-76
2022/09/24 03:58:11;;;;;;;97.45;83.20;;;12.70;99.90;;;;;;4927838;29;20166;-76
2022/09/24 04:00:38;;;;;;;113.38;87.88;;;12.70;99.90;;;;;;4936604;28;20158;-76
2022/09/24 04:03:04;;;;;;;151.20;95.03;;;12.70;99.90;;;;;;4936376;29;20541;-76
2022/09/24 04:05:30;;;;;;;84.97;75.75;;;12.70;99.90;;;;;;4920650;29;20486;-76
2022/09/24 04:07:57;;;;;;;87.95;78.15;;;12.70;99.90;;;;;;4945604;28;20085;-76
2022/09/24 04:10:24;;;;;;;83.85;75.03;;;12.70;99.90;;;;;;4924930;29;20046;-76
2022/09/24 04:12:53;;;;;;;87.25;76.88;;;12.70;99.90;;;;;;4936343;29;20043;-76
2022/09/24 04:15:19;;;;;;;82.03;73.15;;;12.70;99.90;;;;;;4920598;29;20063;-76
2022/09/24 04:17:53;;;;;;;83.68;74.97;;;12.70;99.90;;;;;;4936306;28;20504;-76
2022/09/24 04:20:21;;;;;;;95.22;81.90;;;12.70;99.90;;;;;;4939443;28;20054;-76
2022/09/24 04:22:50;;;;;;;85.78;76.85;;;12.70;99.90;;;;;;4953821;28;20053;-76
2022/09/24 04:25:16;;;;;;;89.25;79.60;;;12.70;99.90;;;;;;4965583;28;20038;-75
2022/09/24 04:27:45;;;;;;;87.63;78.43;;;12.70;99.90;;;;;;4931118;29;20043;-76
2022/09/24 04:30:13;;;;;;;112.97;87.40;;;12.70;99.90;;;;;;4936057;28;20039;-75
2022/09/24 04:32:42;;;;;;;83.35;74.35;;;12.70;99.90;;;;;;4939192;29;20043;-75
2022/09/24 04:35:08;;;;;;;84.75;75.53;;;12.70;99.90;;;;;;4923868;29;20039;-76
2022/09/24 04:37:34;;;;;;;96.22;82.00;;;12.70;99.90;;;;;;4930623;28;20075;-76
2022/09/24 04:40:02;;;;;;;86.75;76.70;;;12.70;99.90;;;;;;4932979;28;20047;-76
2022/09/24 04:42:27;;;;;;;94.68;81.78;;;12.70;99.90;;;;;;4958530;28;20045;-76
2022/09/24 04:44:53;;;;;;;91.00;78.88;;;12.70;99.90;;;;;;4958810;28;20042;-75
2022/09/24 04:47:19;;;;;;;105.43;84.10;;;12.70;99.90;;;;;;4945861;29;20051;-75
2022/09/24 04:49:44;;;;;;;111.07;88.00;;;12.70;99.90;;;;;;4932335;28;20088;-75
2022/09/24 04:52:13;;;;;;;88.13;77.53;;;12.70;99.90;;;;;;4958902;28;20142;-75
2022/09/24 04:54:43;;;;;;;94.40;80.40;;;12.70;99.90;;;;;;4956631;28;20338;-76
2022/09/24 04:57:10;;;;;;;89.35;78.43;;;12.70;99.90;;;;;;4951798;28;20124;-75
2022/09/24 04:59:35;;;;;;;104.35;82.88;;;12.80;99.90;;;;;;4924659;29;20039;-75
2022/09/24 05:02:01;;;;;;;106.57;85.93;;;12.70;99.90;;;;;;4947120;28;20043;-75
2022/09/24 05:04:26;;;;;;;89.80;79.97;;;12.70;99.90;;;;;;4958433;28;20054;-76
2022/09/24 05:06:53;;;;;;;82.68;73.82;;;12.70;99.90;;;;;;4923561;29;20525;-76
2022/09/24 05:09:19;;;;;;;85.03;75.00;;;12.70;99.90;;;;;;4928810;29;20047;-75
2022/09/24 05:11:44;;;;;;;85.97;76.65;;;12.70;99.90;;;;;;4940121;28;20051;-75
2022/09/24 05:14:10;;;;;;;91.32;76.43;;;12.80;99.90;;;;;;4958187;28;20031;-75
2022/09/24 05:16:36;;;;;;;95.78;78.88;;;12.70;99.90;;;;;;4930944;29;20128;-75
2022/09/24 05:19:03;;;;;;;95.03;78.50;;;12.80;99.90;;;;;;4930300;29;20327;-75
2022/09/24 05:21:30;;;;;;;79.45;70.93;;;12.80;99.90;;;;;;4922127;29;20125;-75
2022/09/24 05:23:55;;;;;;;88.25;74.65;;;12.80;99.90;;;;;;4941860;28;20046;-75
2022/09/24 05:29:07;;;;;;;85.25;71.78;;;12.80;99.90;;;;;;4909761;29;20054;-75
2022/09/24 05:31:32;;;;;;;84.65;71.90;;;12.80;99.90;;;;;;4938042;28;20182;-75
2022/09/24 05:33:58;;;;;;;82.32;70.53;;;12.80;99.90;;;;;;4950506;28;20070;-75
2022/09/24 05:36:25;;;;;;;92.35;74.55;;;12.80;99.90;;;;;;4952553;28;20145;-75
2022/09/24 05:38:52;;;;;;;86.63;66.70;;;12.80;99.90;;;;;;4949571;28;20077;-75
2022/09/24 05:41:18;;;;;;;81.97;64.95;;;12.90;99.90;;;;;;4941621;28;20386;-75
2022/09/24 05:43:43;;;;;;;80.18;67.15;;;12.90;99.90;;;;;;4949095;28;20096;-76
2022/09/24 05:46:09;;;;;;;74.53;57.05;;;12.90;99.90;;;;;;4929677;29;20043;-76
2022/09/24 05:48:34;;;;;;;86.95;66.13;;;12.90;99.90;;;;;;4911103;29;20048;-75
2022/09/24 05:51:01;;;;;;;78.20;65.95;;;12.90;99.90;;;;;;4922525;29;20036;-75
2022/09/24 05:53:26;;;;;;;73.45;57.53;;;12.90;99.90;;;;;;4952588;28;20042;-75
2022/09/24 05:55:52;;;;;;;75.13;60.65;;;12.90;99.90;;;;;;4952916;29;20044;-75
2022/09/24 05:58:18;;;;;;;77.47;60.38;;;12.90;99.90;;;;;;4922233;29;20128;-75
2022/09/24 06:00:44;;;;;;;77.47;63.95;;;12.90;99.90;;;;;;4922402;28;20136;-75
2022/09/24 06:03:15;;;;;;;72.45;60.00;;;12.90;99.90;;;;;;4949795;28;20043;-75
2022/09/24 06:05:49;;;;;;;77.10;63.25;;;13.00;99.90;;;;;;4940205;29;20560;-75
2022/09/24 06:08:16;;;;;;;73.38;58.28;;;13.00;99.90;;;;;;4938262;29;20075;-75
2022/09/24 06:10:44;;;;;;;75.82;59.10;;;13.00;99.90;;;;;;4922103;28;20413;-75
2022/09/24 06:13:13;;;;;;;65.40;55.40;;;13.00;99.90;;;;;;4929346;29;20035;-75
2022/09/24 06:15:42;;;;;;;62.28;52.95;;;13.00;99.90;;;;;;4938028;28;20053;-75
2022/09/24 06:18:09;;;;;;;71.60;57.53;;;13.00;99.90;;;;;;4956782;28;20516;-75
2022/09/24 06:20:35;;;;;;;68.18;54.63;;;13.10;99.90;;;;;;4957057;28;20043;-75
2022/09/24 06:23:01;;;;;;;65.72;55.95;;;13.10;99.90;;;;;;4941867;28;20047;-75
2022/09/24 06:25:28;;;;;;;69.03;57.65;;;13.10;99.90;;;;;;4941499;29;20425;-75
2022/09/24 06:27:59;;;;;;;65.13;54.88;;;13.10;99.90;;;;;;4956692;28;20050;-75
2022/09/24 06:30:40;;;;;;;56.13;49.00;;;13.10;99.90;;;;;;4956820;28;20576;-75
2022/09/24 06:33:08;;;;;;;79.22;55.42;;;13.10;99.90;;;;;;4940134;28;20398;-75
2022/09/24 06:35:39;;;;;;;67.28;56.47;;;13.10;99.90;;;;;;4948393;29;20043;-75
2022/09/24 06:38:06;;;;;;;72.65;59.53;;;13.10;99.90;;;;;;4944920;28;20449;-75
2022/09/24 06:40:32;;;;;;;130.30;68.10;;;13.10;99.90;;;;;;4951589;28;20062;-76
2022/09/24 06:42:58;;;;;;;77.38;51.33;;;13.10;99.90;;;;;;4936843;29;20039;-76
2022/09/24 06:45:25;;;;;;;108.85;63.00;;;13.10;99.90;;;;;;4946959;29;20046;-76
2022/09/24 06:47:55;;;;;;;66.05;50.85;;;13.10;99.90;;;;;;4932307;28;20035;-76
2022/09/24 06:50:23;;;;;;;80.43;51.47;;;13.10;99.90;;;;;;4936035;29;20074;-76
2022/09/24 06:52:48;;;;;;;132.45;66.22;;;13.10;99.90;;;;;;4939830;28;20555;-76
2022/09/24 06:55:15;;;;;;;82.10;52.65;;;13.20;99.90;;;;;;4932151;28;20034;-76
2022/09/24 06:57:40;;;;;;;142.57;60.00;;;13.20;99.90;;;;;;4949165;28;20043;-76
2022/09/24 07:00:07;;;;;;;145.60;63.65;;;13.20;99.90;;;;;;4939805;29;20393;-76
2022/09/24 07:02:32;;;;;;;104.47;58.05;;;13.20;99.90;;;;;;4937126;29;20058;-76
2022/09/24 07:04:58;;;;;;;149.13;61.97;;;13.20;99.90;;;;;;4920990;29;20043;-76
2022/09/24 07:07:30;;;;;;;89.25;57.92;;;13.20;99.90;;;;;;4921166;29;20102;-76
2022/09/24 07:09:56;;;;;;;388.73;85.55;;;13.20;99.90;;;;;;4934135;28;20047;-76
2022/09/24 07:12:22;;;;;;;129.20;56.28;;;13.20;99.90;;;;;;4941482;28;20489;-76
2022/09/24 07:14:48;;;;;;;246.90;70.13;;;13.10;99.90;;;;;;4938400;28;20487;-77
2022/09/24 07:17:14;;;;;;;269.77;69.35;;;13.20;99.90;;;;;;4948137;28;20043;-77
2022/09/24 07:19:40;;;;;;;80.65;52.13;;;13.20;99.90;;;;;;4925480;28;20035;-77
2022/09/24 07:22:06;;;;;;;224.93;68.65;;;13.20;99.90;;;;;;4943542;28;20039;-77
2022/09/24 07:24:32;;;;;;;121.18;52.67;;;13.20;99.90;;;;;;4939982;28;20181;-77
2022/09/24 07:26:58;;;;;;;99.38;47.17;;;13.20;99.90;;;;;;4944728;28;20177;-77
2022/09/24 07:29:23;;;;;;;79.93;44.75;;;13.20;99.90;;;;;;4930952;28;20043;-77
2022/09/24 07:31:49;;;;;;;135.48;46.88;;;13.10;99.90;;;;;;4936098;28;20062;-77
2022/09/24 07:34:14;;;;;;;77.85;37.38;;;13.10;99.90;;;;;;4920971;29;20059;-77
2022/09/24 07:36:41;;;;;;;83.90;34.88;;;13.10;99.90;;;;;;4932966;28;20145;-77
2022/09/24 07:39:06;;;;;;;83.72;37.63;;;13.10;99.90;;;;;;4940910;28;20050;-77
2022/09/24 07:41:33;;;;;;;88.40;38.08;;;13.10;99.90;;;;;;4933348;29;20043;-77
2022/09/24 07:43:59;;;;;;;109.43;39.83;;;13.20;99.90;;;;;;4943189;28;20428;-76
2022/09/24 07:46:25;;;;;;;180.85;50.72;;;13.30;99.90;;;;;;4928570;28;20042;-77
2022/09/24 07:48:56;;;;;;;56.92;35.85;;;13.20;99.90;;;;;;4938646;28;20043;-76
2022/09/24 07:51:24;;;;;;;47.30;33.80;;;13.30;99.90;;;;;;4939086;29;20405;-76
2022/09/24 07:53:50;;;;;;;54.08;36.30;;;13.30;99.90;;;;;;4927865;29;20071;-76
2022/09/24 07:56:16;;;;;;;52.22;34.95;;;13.30;99.90;;;;;;4932918;29;20039;-76
2022/09/24 07:58:42;;;;;;;71.97;37.42;;;13.30;99.90;;;;;;4921075;28;20046;-76
2022/09/24 08:01:08;;;;;;;114.78;39.08;;;13.40;99.90;;;;;;4948030;28;20401;-77
2022/09/24 08:03:33;;;;;;;63.13;36.05;;;13.40;99.90;;;;;;4930799;28;20039;-76
2022/09/24 08:06:00;;;;;;;63.38;33.80;;;13.50;99.90;;;;;;4942650;28;20043;-76
2022/09/24 08:08:26;;;;;;;45.95;29.13;;;13.50;99.90;;;;;;4954785;28;20046;-76
2022/09/24 08:10:51;;;;;;;54.22;30.95;;;13.50;99.90;;;;;;4939960;29;20506;-76
2022/09/24 08:13:17;;;;;;;100.88;34.30;;;13.60;99.90;;;;;;4940174;29;20043;-76
2022/09/24 08:15:43;;;;;;;69.22;34.53;;;13.70;99.90;;;;;;4924310;29;20040;-76
2022/09/24 08:18:09;;;;;;;54.10;33.55;;;13.60;99.90;;;;;;4940233;29;20110;-76
2022/09/24 08:20:36;;;;;;;72.50;36.38;;;13.70;99.90;;;;;;4939078;29;20035;-76
2022/09/24 08:23:08;;;;;;;48.42;31.67;;;13.70;99.90;;;;;;4914221;29;20514;-76
2022/09/24 08:25:34;;;;;;;188.45;50.33;;;13.80;99.90;;;;;;4937029;29;20051;-76
2022/09/24 08:28:07;;;;;;;51.88;32.40;;;13.80;99.90;;;;;;4939052;29;20115;-76
2022/09/24 08:30:33;;;;;;;35.63;27.65;;;13.80;99.90;;;;;;4931847;28;20162;-75
2022/09/24 08:32:59;;;;;;;51.50;31.77;;;13.80;99.90;;;;;;4924322;29;20035;-76
2022/09/24 08:35:25;;;;;;;37.25;27.33;;;13.80;99.90;;;;;;4924046;29;20086;-76
2022/09/24 08:37:53;;;;;;;35.53;24.50;;;13.80;99.90;;;;;;4925322;28;20031;-76
2022/09/24 08:40:22;;;;;;;55.22;31.15;;;13.80;99.90;;;;;;4933557;29;20126;-75
2022/09/24 08:43:04;;;;;;;58.72;30.42;;;13.80;99.90;;;;;;4948509;28;20117;-76
2022/09/24 08:48:24;;;;;;;;;;;13.90;99.90;;;;;;4936541;28;20113;-75
2022/09/24 08:51:00;;;;;;;40.58;26.67;;;13.90;99.90;;;;;;4924435;28;19922;-75
2022/09/24 08:53:32;;;;;;;49.13;30.33;;;13.90;99.90;;;;;;4946177;28;20081;-75
2022/09/24 08:55:59;;;;;;;89.22;36.13;;;13.90;99.90;;;;;;4920239;29;20422;-75
2022/09/24 08:58:28;;;;;;;26.13;21.80;;;14.00;99.90;;;;;;4941825;29;20114;-76
2022/09/24 09:01:05;;;;;;;32.10;24.95;;;14.00;99.90;;;;;;4946391;29;20058;-76
2022/09/24 09:03:57;;;;;;;47.13;28.35;;;14.00;99.90;;;;;;4931419;29;20050;-77
2022/09/24 09:06:44;;;;;;;39.83;26.25;;;14.00;99.90;;;;;;4922607;29;20075;-77
2022/09/24 09:09:25;;;;;;;54.97;31.88;;;14.00;99.90;;;;;;4947021;28;20047;-77
2022/09/24 09:12:16;;;;;;;45.85;30.20;;;14.00;99.90;;;;;;4943313;28;20050;-77
2022/09/24 09:14:42;;;;;;;60.15;31.13;;;14.10;99.90;;;;;;4953088;28;20510;-77
2022/09/24 09:17:30;;;;;;;58.90;33.10;;;14.10;99.90;;;;;;4944615;28;20098;-77
2022/09/24 09:19:57;;;;;;;56.13;29.98;;;14.20;99.90;;;;;;4924123;28;20082;-77
2022/09/24 09:22:28;;;;;;;58.72;32.58;;;14.20;99.90;;;;;;4948325;28;20485;-77
2022/09/24 09:25:03;;;;;;;47.95;29.88;;;14.10;99.90;;;;;;4943182;28;20089;-77
2022/09/24 09:27:28;;;;;;;67.55;31.98;;;14.20;99.90;;;;;;4958647;28;20034;-76
2022/09/24 09:30:01;;;;;;;43.13;26.73;;;14.20;99.90;;;;;;4957947;28;20042;-77
2022/09/24 09:33:01;;;;;;;55.15;27.23;;;14.30;99.90;;;;;;4936053;28;20501;-77
2022/09/24 09:35:40;;;;;;;56.75;27.40;;;14.30;99.90;;;;;;4929412;29;20047;-77
2022/09/24 09:38:31;;;;;;;25.58;13.57;;;14.30;99.90;;;;;;4928365;28;20039;-77
2022/09/24 09:41:28;;;;;;;29.45;16.25;;;14.30;99.90;;;;;;4958291;28;20039;-77
2022/09/24 09:44:00;;;;;;;32.08;16.55;;;14.30;99.90;;;;;;4954255;28;20050;-77
2022/09/24 09:46:33;;;;;;;25.25;13.73;;;14.30;99.90;;;;;;4929743;29;20810;-79
2022/09/24 09:49:05;;;;;;;22.92;12.18;;;14.30;99.90;;;;;;4937093;28;20054;-78
2022/09/24 09:51:37;;;;;;;21.23;8.40;;;14.30;99.90;;;;;;4933883;29;20043;-78
2022/09/24 09:54:04;;;;;;;15.77;5.63;;;14.30;99.90;;;;;;4957078;28;20401;-77
2022/09/24 09:56:47;;;;;;;17.95;5.43;;;14.30;99.90;;;;;;4944084;29;20051;-76
2022/09/24 09:59:21;;;;;;;16.00;4.88;;;14.20;99.90;;;;;;4939385;29;20115;-76
2022/09/24 10:01:54;;;;;;;15.07;4.90;;;14.30;99.90;;;;;;4928539;28;20162;-76
2022/09/24 10:04:35;;;;;;;19.75;4.20;;;14.20;99.90;;;;;;4933031;29;20177;-76
2022/09/24 10:07:05;;;;;;;16.70;3.53;;;14.20;99.90;;;;;;4920093;28;20042;-76
2022/09/24 10:09:31;;;;;;;15.25;4.40;;;14.20;99.90;;;;;;4922081;28;20042;-76
2022/09/24 10:12:26;;;;;;;17.38;4.35;;;14.20;99.90;;;;;;4919569;29;20032;-76
2022/09/24 10:14:57;;;;;;;19.88;4.50;;;14.20;99.90;;;;;;4934052;28;20054;-76
2022/09/24 10:17:27;;;;;;;17.15;3.88;;;14.30;99.90;;;;;;4941426;29;20050;-76
2022/09/24 10:19:54;;;;;;;14.05;3.80;;;14.30;99.90;;;;;;4946191;28;20034;-76
2022/09/24 10:22:23;;;;;;;13.18;4.30;;;14.30;99.90;;;;;;4935691;29;20039;-75
2022/09/24 10:24:50;;;;;;;17.95;3.70;;;14.30;99.90;;;;;;4938258;28;20127;-76
2022/09/24 10:27:29;;;;;;;14.95;4.07;;;14.40;99.90;;;;;;4938870;28;20050;-76
2022/09/24 10:32:40;;;;;;;16.02;3.10;;;14.50;99.90;;;;;;4942589;28;20065;-75
2022/09/24 10:35:38;;;;;;;14.63;3.03;;;14.40;99.90;;;;;;4926875;28;20038;-76
2022/09/24 10:38:16;;;;;;;11.82;2.80;;;14.50;99.90;;;;;;4915036;29;20043;-76
2022/09/24 10:40:42;;;;;;;12.55;2.55;;;14.50;99.90;;;;;;4940646;28;20042;-76
2022/09/24 10:43:16;;;;;;;11.60;2.60;;;14.50;99.90;;;;;;4937115;29;20429;-76
2022/09/24 10:46:30;;;;;;;13.85;3.58;;;14.50;99.90;;;;;;4938153;29;20404;-76
2022/09/24 10:49:19;;;;;;;14.27;2.95;;;14.40;99.90;;;;;;4910929;28;20096;-75
2022/09/24 10:51:57;;;;;;;13.75;2.70;;;14.40;99.90;;;;;;4925969;28;20107;-76
2022/09/24 10:55:00;;;;;;;11.80;2.70;;;14.30;99.90;;;;;;4949575;28;20042;-76
2022/09/24 10:57:38;;;;;;;13.20;3.30;;;14.40;99.90;;;;;;4932236;29;20035;-75
2022/09/24 11:00:20;;;;;;;13.70;2.95;;;14.50;99.90;;;;;;4952926;28;20053;-75
2022/09/24 11:03:23;;;;;;;9.23;2.33;;;14.50;99.90;;;;;;4944481;28;20035;-76
2022/09/24 11:05:59;;;;;;;11.45;2.42;;;14.60;99.90;;;;;;4955020;28;20401;-76
2022/09/24 11:08:52;;;;;;;8.98;2.20;;;14.60;99.90;;;;;;4940430;29;20035;-76
2022/09/24 11:11:24;;;;;;;12.48;2.92;;;14.60;99.90;;;;;;4935227;29;20121;-76
2022/09/24 11:14:14;;;;;;;9.20;2.15;;;14.70;99.90;;;;;;4941010;28;20121;-75
2022/09/24 11:17:06;;;;;;;8.55;2.35;;;14.80;99.90;;;;;;4935496;28;20062;-76
2022/09/24 11:19:59;;;;;;;10.25;2.47;;;14.80;99.90;;;;;;4936534;29;20513;-76
2022/09/24 11:22:40;;;;;;;;;;;14.80;99.90;;;;;;4964181;28;20398;-76
2022/09/24 11:25:30;;;;;;;9.93;2.67;;;14.80;99.90;;;;;;4932853;29;19922;-76
2022/09/24 11:28:16;;;;;;;11.55;2.80;;;14.80;99.90;;;;;;4928582;28;20054;-76
2022/09/24 11:31:15;;;;;;;8.63;2.08;;;14.70;99.90;;;;;;4938353;28;20040;-76
2022/09/24 11:33:53;;;;;;;7.57;2.08;;;14.70;99.90;;;;;;4934791;28;20067;-76
2022/09/24 11:36:49;;;;;;;6.18;1.67;;;14.70;99.90;;;;;;4929800;29;20047;-77
2022/09/24 11:39:52;;;;;;;6.82;1.52;;;14.80;99.90;;;;;;4936814;29;20134;-76
2022/09/24 11:42:21;;;;;;;7.45;2.13;;;14.80;99.90;;;;;;4922203;28;20038;-75
2022/09/24 11:45:03;;;;;;;6.60;1.80;;;14.80;99.90;;;;;;4937460;29;20034;-75
2022/09/24 11:47:32;;;;;;;7.03;1.92;;;14.90;99.90;;;;;;4927723;29;20057;-75
2022/09/24 11:50:43;;;;;;;5.40;1.75;;;14.90;99.90;;;;;;4935330;28;20077;-76
2022/09/24 11:53:20;;;;;;;6.57;1.55;;;14.90;99.90;;;;;;4924777;29;20442;-76
2022/09/24 11:55:52;;;;;;;4.95;1.90;;;15.00;99.90;;;;;;4931853;28;20093;-76
2022/09/24 11:58:24;;;;;;;5.80;1.50;;;14.90;99.90;;;;;;4935373;29;20047;-75
2022/09/24 12:00:54;;;;;;;8.05;1.77;;;14.90;99.90;;;;;;4942127;28;20062;-76
2022/09/24 12:03:24;;;;;;;6.85;1.83;;;14.90;99.90;;;;;;4935794;29;20039;-76
2022/09/24 12:05:56;;;;;;;5.90;1.65;;;14.90;99.90;;;;;;4934687;29;20039;-76
2022/09/24 12:08:30;;;;;;;7.72;1.70;;;15.00;99.90;;;;;;4936056;29;20047;-76
2022/09/24 12:11:21;;;;;;;6.55;2.15;;;15.00;99.90;;;;;;4941524;28;20039;-76
2022/09/24 12:14:11;;;;;;;6.40;1.75;;;15.00;99.90;;;;;;4936156;28;20047;-76
2022/09/24 12:16:39;;;;;;;5.90;1.50;;;15.10;99.90;;;;;;4943050;28;20043;-76
2022/09/24 12:19:20;;;;;;;10.20;2.25;;;15.10;99.90;;;;;;4939821;28;20043;-76
2022/09/24 12:21:50;;;;;;;9.93;1.90;;;15.10;99.90;;;;;;4924613;28;20066;-76
2022/09/24 12:24:38;;;;;;;6.53;1.70;;;15.10;99.90;;;;;;4944053;28;20089;-75
2022/09/24 12:27:14;;;;;;;8.35;1.92;;;15.20;99.90;;;;;;4935031;28;20081;-75
2022/09/24 12:32:55;;;;;;;8.77;2.00;;;15.10;99.90;;;;;;4930899;29;20107;-76
2022/09/24 12:35:27;;;;;;;8.18;1.42;;;15.10;99.90;;;;;;4935270;29;20039;-75
2022/09/24 12:38:04;;;;;;;6.60;1.50;;;14.90;99.90;;;;;;4935351;28;20117;-76
2022/09/24 12:40:51;;;;;;;5.63;1.45;;;14.80;99.90;;;;;;4947304;28;20049;-76
2022/09/24 12:43:41;;;;;;;4.30;1.15;;;14.70;99.90;;;;;;4944691;28;20051;-76
2022/09/24 12:46:17;;;;;;;6.82;1.40;;;14.70;99.90;;;;;;4955495;28;20074;-76
2022/09/24 12:48:44;;;;;;;6.43;1.42;;;14.80;99.90;;;;;;4924122;28;20074;-75
2022/09/24 12:51:11;;;;;;;3.58;0.90;;;14.80;99.90;;;;;;4940443;28;20051;-75
2022/09/24 12:53:40;;;;;;;3.00;0.95;;;14.80;99.90;;;;;;4958215;28;20035;-75
2022/09/24 12:56:08;;;;;;;2.75;1.10;;;14.80;99.90;;;;;;4958752;28;20034;-75
2022/09/24 12:58:45;;;;;;;3.88;1.17;;;14.90;99.90;;;;;;4938439;29;20066;-75
2022/09/24 13:01:24;;;;;;;4.50;1.15;;;14.90;99.90;;;;;;4939132;29;20058;-75
2022/09/24 13:04:15;;;;;;;6.53;1.65;;;14.90;99.90;;;;;;4939567;29;20505;-76
2022/09/24 13:06:45;;;;;;;7.10;1.58;;;15.00;99.90;;;;;;4945184;28;20035;-76